Time;durP1;ratioP1;P1;durP2;ratioP2;P2;SDS_P1;SDS_P2;PMS_P1;PMS_P2;Temp;Humidity;BMP_temperature;BMP_pressure;BME280_temperature;BME280_humidity;BME280_pressure;Samples;Min_cycle;Max_cycle;Signal;HPM_P1;HPM_P2
2023/06/22 00:03:22;;;;;;;2.58;2.25;;;;;;;;;;12483879;23;20451;-89
2023/06/22 00:08:27;;;;;;;2.45;2.13;;;;;;;;;;12483373;23;20757;-89
2023/06/22 00:13:31;;;;;;;2.00;1.77;;;;;;;;;;12483658;23;20030;-92
2023/06/22 00:18:34;;;;;;;3.05;2.13;;;;;;;;;;12483246;23;20031;-88
2023/06/22 00:23:39;;;;;;;2.58;2.28;;;;;;;;;;12482314;23;20023;-85
2023/06/22 00:28:42;;;;;;;2.13;1.70;;;;;;;;;;12476229;23;20034;-86
2023/06/22 00:33:46;;;;;;;2.20;2.00;;;;;;;;;;12483550;23;20031;-86
2023/06/22 00:38:51;;;;;;;3.33;2.30;;;;;;;;;;12478640;23;20027;-86
2023/06/22 00:43:54;;;;;;;2.33;2.00;;;;;;;;;;12477245;23;20522;-87
2023/06/22 00:48:58;;;;;;;2.40;1.98;;;;;;;;;;12477286;23;20082;-86
2023/06/22 00:54:06;;;;;;;2.75;2.17;;;;;;;;;;12477936;23;20031;-89
2023/06/22 00:59:12;;;;;;;4.13;2.17;;;;;;;;;;12476740;23;20111;-87
2023/06/22 01:04:15;;;;;;;2.78;2.13;;;;;;;;;;12477377;23;20033;-88
2023/06/22 01:09:26;;;;;;;3.60;2.50;;;;;;;;;;12478476;23;20090;-87
2023/06/22 01:14:37;;;;;;;3.22;2.70;;;;;;;;;;12478842;23;20467;-88
2023/06/22 01:19:55;;;;;;;2.50;2.30;;;;;;;;;;12477000;23;20090;-87
2023/06/22 01:25:12;;;;;;;3.03;2.28;;;;;;;;;;12469727;23;20047;-88
2023/06/22 01:30:19;;;;;;;2.47;2.15;;;;;;;;;;12476557;23;20031;-88
2023/06/22 01:35:23;;;;;;;2.38;1.90;;;;;;;;;;12476664;23;20333;-88
2023/06/22 01:40:27;;;;;;;3.38;2.22;;;;;;;;;;12476290;23;20029;-88
2023/06/22 01:45:32;;;;;;;3.08;2.47;;;;;;;;;;12477460;23;20475;-88
2023/06/22 01:50:36;;;;;;;4.00;2.10;;;;;;;;;;12476203;23;20389;-88
2023/06/22 01:55:39;;;;;;;3.38;2.13;;;;;;;;;;12475232;23;20031;-88
2023/06/22 02:00:49;;;;;;;2.03;1.83;;;;;;;;;;12476439;23;20631;-88
2023/06/22 02:05:57;;;;;;;4.53;2.22;;;;;;;;;;12476333;23;20033;-87
2023/06/22 02:11:02;;;;;;;2.10;1.90;;;;;;;;;;12475544;23;20086;-87
2023/06/22 02:16:07;;;;;;;3.10;2.57;;;;;;;;;;12476417;23;20027;-88
2023/06/22 02:21:10;;;;;;;3.30;2.40;;;;;;;;;;12476386;23;20023;-95
2023/06/22 02:26:17;;;;;;;2.58;1.95;;;;;;;;;;12481680;23;20031;-89
2023/06/22 02:31:22;;;;;;;3.85;2.15;;;;;;;;;;12482305;23;20034;-89
2023/06/22 02:36:27;;;;;;;3.10;2.10;;;;;;;;;;12492957;23;20028;-81
2023/06/22 02:41:30;;;;;;;2.75;2.17;;;;;;;;;;12510422;23;20087;-81
2023/06/22 02:46:35;;;;;;;2.38;1.88;;;;;;;;;;12494705;23;20027;-80
2023/06/22 02:51:42;;;;;;;2.70;2.03;;;;;;;;;;12496375;23;20031;-81
2023/06/22 02:56:46;;;;;;;2.30;2.10;;;;;;;;;;12496260;23;20074;-80
2023/06/22 03:01:51;;;;;;;2.45;2.20;;;;;;;;;;12497239;23;20047;-81
2023/06/22 03:07:01;;;;;;;3.13;2.35;;;;;;;;;;12497251;23;20058;-82
2023/06/22 03:12:06;;;;;;;3.22;2.75;;;;;;;;;;12496299;23;20029;-81
2023/06/22 03:17:19;;;;;;;3.35;2.30;;;;;;;;;;12496548;23;20087;-82
2023/06/22 03:22:23;;;;;;;2.40;1.97;;;;;;;;;;12496821;23;20419;-82
2023/06/22 03:27:26;;;;;;;2.60;2.08;;;;;;;;;;12496322;23;20038;-82
2023/06/22 03:32:31;;;;;;;3.10;2.22;;;;;;;;;;12496478;23;20027;-81
2023/06/22 03:37:35;;;;;;;3.50;2.20;;;;;;;;;;12496866;23;20031;-82
2023/06/22 03:42:38;;;;;;;4.40;2.05;;;;;;;;;;12497663;23;20099;-82
2023/06/22 03:47:43;;;;;;;2.50;2.13;;;;;;;;;;12495443;23;20027;-82
2023/06/22 03:52:47;;;;;;;3.17;2.35;;;;;;;;;;12495240;23;20019;-82
2023/06/22 03:57:51;;;;;;;2.40;2.13;;;;;;;;;;12495662;23;20027;-82
2023/06/22 04:02:56;;;;;;;3.05;2.40;;;;;;;;;;12505353;23;20528;-82
2023/06/22 04:07:59;;;;;;;2.47;2.10;;;;;;;;;;12493890;23;20035;-82
2023/06/22 04:13:03;;;;;;;4.13;2.28;;;;;;;;;;12495839;23;20027;-82
2023/06/22 04:18:08;;;;;;;4.93;2.50;;;;;;;;;;12520046;23;20027;-82
2023/06/22 04:23:11;;;;;;;3.27;2.20;;;;;;;;;;12496812;23;20031;-82
2023/06/22 04:28:15;;;;;;;4.80;2.50;;;;;;;;;;12499161;23;20106;-82
2023/06/22 04:33:20;;;;;;;3.00;2.42;;;;;;;;;;12504696;23;20059;-82
2023/06/22 04:38:24;;;;;;;3.17;2.03;;;;;;;;;;12504292;23;20031;-82
2023/06/22 04:43:30;;;;;;;6.15;2.25;;;;;;;;;;12496955;23;20023;-82
2023/06/22 04:48:34;;;;;;;2.80;2.50;;;;;;;;;;12496812;23;20106;-82
2023/06/22 04:53:41;;;;;;;6.18;2.60;;;;;;;;;;12496066;23;20402;-82
2023/06/22 04:58:44;;;;;;;5.47;2.42;;;;;;;;;;12499326;23;20027;-82
2023/06/22 05:03:49;;;;;;;7.68;2.75;;;;;;;;;;12493463;23;20027;-82
2023/06/22 05:08:57;;;;;;;4.40;2.55;;;;;;;;;;12502192;23;20042;-82
2023/06/22 05:14:00;;;;;;;5.45;2.67;;;;;;;;;;12501709;23;20350;-82
2023/06/22 05:19:05;;;;;;;3.67;2.42;;;;;;;;;;12496047;23;20045;-82
2023/06/22 05:24:09;;;;;;;3.63;2.43;;;;;;;;;;12501159;23;20019;-82
2023/06/22 05:29:13;;;;;;;3.65;2.40;;;;;;;;;;12497599;23;20027;-82
2023/06/22 05:34:18;;;;;;;5.28;2.47;;;;;;;;;;12494472;23;20031;-82
2023/06/22 05:39:21;;;;;;;3.92;2.60;;;;;;;;;;12499167;23;20046;-81
2023/06/22 05:44:25;;;;;;;3.65;2.40;;;;;;;;;;12497171;23;20402;-82
2023/06/22 05:49:32;;;;;;;2.65;2.17;;;;;;;;;;12495328;23;20027;-82
2023/06/22 05:54:36;;;;;;;3.05;2.38;;;;;;;;;;12495026;23;20075;-82
2023/06/22 05:59:39;;;;;;;4.47;3.00;;;;;;;;;;12494828;23;20033;-82
2023/06/22 06:04:44;;;;;;;4.05;2.58;;;;;;;;;;12496873;23;20055;-82
2023/06/22 06:09:48;;;;;;;3.40;2.53;;;;;;;;;;12495513;23;20086;-82
2023/06/22 06:14:53;;;;;;;3.47;3.00;;;;;;;;;;12494804;23;20030;-83
2023/06/22 06:19:59;;;;;;;4.07;3.47;;;;;;;;;;12493998;23;20027;-82
2023/06/22 06:25:04;;;;;;;3.63;2.65;;;;;;;;;;12480397;23;20031;-83
2023/06/22 06:30:16;;;;;;;3.20;2.83;;;;;;;;;;12493853;23;20114;-83
2023/06/22 06:35:25;;;;;;;5.40;3.95;;;;;;;;;;12493001;23;20030;-83
2023/06/22 06:40:34;;;;;;;3.75;2.92;;;;;;;;;;12492817;23;20035;-83
2023/06/22 06:45:40;;;;;;;4.50;3.70;;;;;;;;;;12493337;23;20023;-83
2023/06/22 06:50:47;;;;;;;3.15;2.63;;;;;;;;;;12478123;23;20084;-83
2023/06/22 06:55:51;;;;;;;3.42;3.13;;;;;;;;;;12509804;23;20023;-83
2023/06/22 07:01:07;;;;;;;6.50;3.22;;;;;;;;;;12477994;23;20031;-83
2023/06/22 07:06:53;;;;;;;4.20;3.65;;;;;;;;;;12494411;23;20054;-83
2023/06/22 07:25:15;;;;;;;6.85;3.35;;;;;;;;;;12323612;23;20356;-83
2023/06/22 07:30:20;;;;;;;3.83;3.22;;;;;;;;;;12484443;23;20023;-83
2023/06/22 07:35:23;;;;;;;3.55;2.85;;;;;;;;;;12482606;23;20135;-83
2023/06/22 07:40:26;;;;;;;4.10;2.90;;;;;;;;;;12481754;23;20047;-83
2023/06/22 07:45:33;;;;;;;3.10;2.70;;;;;;;;;;12484170;23;20106;-83
2023/06/22 07:50:36;;;;;;;3.95;3.47;;;;;;;;;;12456943;23;20035;-83
2023/06/22 07:55:39;;;;;;;5.05;3.75;;;;;;;;;;12483955;23;20039;-84
2023/06/22 08:00:44;;;;;;;4.45;3.85;;;;;;;;;;12456610;23;20041;-85
2023/06/22 08:05:48;;;;;;;4.78;4.13;;;;;;;;;;12481306;23;20058;-84
2023/06/22 08:10:52;;;;;;;3.95;3.55;;;;;;;;;;12482845;23;20661;-83
2023/06/22 08:15:56;;;;;;;5.28;3.42;;;;;;;;;;12456590;23;20425;-83
2023/06/22 08:20:59;;;;;;;5.07;3.33;;;;;;;;;;12498246;23;20020;-83
2023/06/22 08:26:03;;;;;;;3.92;3.53;;;;;;;;;;12497110;23;20043;-83
2023/06/22 08:31:08;;;;;;;4.75;4.00;;;;;;;;;;12498439;23;20398;-83
2023/06/22 08:36:13;;;;;;;4.28;3.28;;;;;;;;;;12455760;23;20415;-84
2023/06/22 08:41:17;;;;;;;3.72;3.30;;;;;;;;;;12454384;23;20051;-84
2023/06/22 08:46:23;;;;;;;4.35;3.55;;;;;;;;;;12453962;23;20408;-83
2023/06/22 08:51:26;;;;;;;6.38;5.32;;;;;;;;;;12456446;23;20047;-84
2023/06/22 08:56:29;;;;;;;6.47;5.10;;;;;;;;;;12454452;23;20035;-84
2023/06/22 09:01:34;;;;;;;4.22;3.67;;;;;;;;;;12453018;23;20420;-85
2023/06/22 09:06:41;;;;;;;5.50;3.67;;;;;;;;;;12454518;23;20023;-84
2023/06/22 09:11:44;;;;;;;5.38;3.90;;;;;;;;;;12453399;23;20082;-84
2023/06/22 09:16:49;;;;;;;4.03;3.63;;;;;;;;;;12451190;23;20046;-84
2023/06/22 09:21:52;;;;;;;3.90;3.50;;;;;;;;;;12487999;23;20038;-85
2023/06/22 09:26:55;;;;;;;4.55;3.95;;;;;;;;;;12462544;23;20047;-86
2023/06/22 09:32:00;;;;;;;4.10;3.70;;;;;;;;;;12490914;23;20689;-85
2023/06/22 09:37:04;;;;;;;6.15;4.38;;;;;;;;;;12472417;23;20028;-85
2023/06/22 09:42:08;;;;;;;4.60;3.67;;;;;;;;;;12473392;23;20075;-84
2023/06/22 09:47:13;;;;;;;3.93;3.03;;;;;;;;;;12465271;23;20039;-84
2023/06/22 09:52:17;;;;;;;4.20;3.77;;;;;;;;;;12466534;23;20377;-83
2023/06/22 09:57:20;;;;;;;3.50;3.20;;;;;;;;;;12504795;23;20403;-84
2023/06/22 10:02:25;;;;;;;4.07;3.58;;;;;;;;;;12506218;23;20031;-84
2023/06/22 10:07:28;;;;;;;4.60;3.38;;;;;;;;;;12464889;23;20035;-84
2023/06/22 10:12:32;;;;;;;4.63;3.15;;;;;;;;;;12468824;23;20035;-83
2023/06/22 10:17:36;;;;;;;6.40;3.10;;;;;;;;;;12473404;23;20023;-83
2023/06/22 10:22:40;;;;;;;4.68;2.78;;;;;;;;;;12497810;23;20032;-83
2023/06/22 10:27:44;;;;;;;3.78;3.47;;;;;;;;;;12469231;23;20050;-83
2023/06/22 10:32:48;;;;;;;4.10;3.28;;;;;;;;;;12495617;23;20027;-83
2023/06/22 10:37:52;;;;;;;3.33;2.95;;;;;;;;;;12469451;23;20031;-83
2023/06/22 10:42:55;;;;;;;3.58;3.17;;;;;;;;;;12470304;23;20031;-83
2023/06/22 10:47:59;;;;;;;3.70;3.38;;;;;;;;;;12467917;23;20027;-83
2023/06/22 10:53:03;;;;;;;4.13;2.88;;;;;;;;;;12469529;23;20027;-83
2023/06/22 10:58:06;;;;;;;3.20;2.60;;;;;;;;;;12501566;23;20468;-83
2023/06/22 11:03:11;;;;;;;4.22;2.13;;;;;;;;;;12505704;23;20083;-83
2023/06/22 11:08:16;;;;;;;3.58;3.25;;;;;;;;;;12474402;23;20495;-84
2023/06/22 11:13:19;;;;;;;4.65;3.80;;;;;;;;;;12473756;23;20035;-84
2023/06/22 11:18:24;;;;;;;3.78;3.05;;;;;;;;;;12473378;23;20360;-84
2023/06/22 11:23:28;;;;;;;;;;;;;;;;;;12475306;23;20035;-84
2023/06/22 11:28:31;;;;;;;4.70;3.00;;;;;;;;;;12474956;23;20262;-84
2023/06/22 11:33:36;;;;;;;2.53;2.25;;;;;;;;;;12473137;23;20091;-84
2023/06/22 11:38:39;;;;;;;4.85;3.90;;;;;;;;;;12495268;23;20027;-84
2023/06/22 11:43:42;;;;;;;4.20;3.13;;;;;;;;;;12503368;23;20034;-84
2023/06/22 11:48:47;;;;;;;3.17;2.83;;;;;;;;;;12496203;23;20111;-84
2023/06/22 11:53:50;;;;;;;;;;;;;;;;;;12471730;23;20027;-84
2023/06/22 11:58:54;;;;;;;4.40;2.53;;;;;;;;;;12471144;23;19925;-84
2023/06/22 12:03:58;;;;;;;3.53;2.90;;;;;;;;;;12498443;23;20035;-84
2023/06/22 12:09:04;;;;;;;;;;;;;;;;;;12471875;23;20090;-84
2023/06/22 12:14:07;;;;;;;2.67;2.45;;;;;;;;;;12493233;23;19917;-84
2023/06/22 12:19:12;;;;;;;3.55;3.00;;;;;;;;;;12439372;23;20024;-84
2023/06/22 12:24:15;;;;;;;4.03;2.92;;;;;;;;;;12419353;23;20027;-84
2023/06/22 12:29:19;;;;;;;5.07;4.07;;;;;;;;;;12416542;23;20020;-84
2023/06/22 12:34:24;;;;;;;4.10;3.70;;;;;;;;;;12419007;23;20302;-84
2023/06/22 12:39:27;;;;;;;4.75;3.30;;;;;;;;;;12417806;23;20027;-85
2023/06/22 12:44:31;;;;;;;3.97;2.70;;;;;;;;;;12418296;23;20366;-84
2023/06/22 12:49:36;;;;;;;3.88;3.10;;;;;;;;;;12440778;23;20103;-84
2023/06/22 12:54:39;;;;;;;3.83;3.42;;;;;;;;;;12417476;23;20227;-84
2023/06/22 12:59:48;;;;;;;4.35;3.60;;;;;;;;;;12440978;23;20094;-84
2023/06/22 13:04:54;;;;;;;5.32;3.45;;;;;;;;;;12418213;23;20027;-84
2023/06/22 13:09:57;;;;;;;4.13;2.80;;;;;;;;;;12417141;23;20024;-84
2023/06/22 13:15:02;;;;;;;5.88;3.75;;;;;;;;;;12417007;23;20050;-84
2023/06/22 13:20:08;;;;;;;5.03;3.17;;;;;;;;;;12416433;23;20355;-83
2023/06/22 13:25:12;;;;;;;3.08;2.63;;;;;;;;;;12416228;23;20031;-84
2023/06/22 13:30:16;;;;;;;5.25;3.03;;;;;;;;;;12416188;23;20088;-84
2023/06/22 13:35:21;;;;;;;4.17;3.13;;;;;;;;;;12418776;23;20846;-85
2023/06/22 13:40:25;;;;;;;4.53;3.25;;;;;;;;;;12440105;23;20050;-84
2023/06/22 13:45:29;;;;;;;;;;;;;;;;;;12417156;23;20023;-85
2023/06/22 13:50:34;;;;;;;3.75;2.15;;;;;;;;;;12417222;23;20005;-87
2023/06/22 13:55:37;;;;;;;4.85;2.58;;;;;;;;;;12421480;23;20031;-91
2023/06/22 14:00:41;;;;;;;8.63;3.60;;;;;;;;;;12429420;23;20725;-89
2023/06/22 14:05:46;;;;;;;8.93;2.97;;;;;;;;;;12447845;23;20125;-88
2023/06/22 14:10:50;;;;;;;6.07;2.58;;;;;;;;;;12444659;23;20345;-90
2023/06/22 14:41:21;;;;;;;8.13;3.63;;;;;;;;;;10530618;27;20397;-86
2023/06/22 14:46:24;;;;;;;5.85;1.80;;;;;;;;;;10507639;28;20438;-90
2023/06/22 14:51:28;;;;;;;3.00;1.33;;;;;;;;;;10518484;28;20081;-85
2023/06/22 14:56:35;;;;;;;4.53;1.48;;;;;;;;;;10521668;28;20072;-85
2023/06/22 15:01:38;;;;;;;3.30;1.45;;;;;;;;;;10505589;28;20067;-85
2023/06/22 15:06:44;;;;;;;4.30;1.50;;;;;;;;;;10501407;28;20040;-89
2023/06/22 15:11:49;;;;;;;5.82;1.50;;;;;;;;;;10522249;28;20060;-85
2023/06/22 15:16:52;;;;;;;2.97;1.40;;;;;;;;;;10502462;28;20065;-89
2023/06/22 15:21:55;;;;;;;5.93;1.33;;;;;;;;;;10504255;28;20789;-86
2023/06/22 15:27:01;;;;;;;5.60;1.20;;;;;;;;;;10496636;28;20045;-88
2023/06/22 15:32:05;;;;;;;3.03;1.40;;;;;;;;;;10494631;28;20093;-87
2023/06/22 15:37:08;;;;;;;8.98;3.13;;;;;;;;;;10505008;28;20086;-88
2023/06/22 15:42:13;;;;;;;5.95;1.83;;;;;;;;;;10489616;28;20052;-88
2023/06/22 15:47:20;;;;;;;5.37;1.27;;;;;;;;;;10483907;28;20044;-84
2023/06/22 15:52:24;;;;;;;3.08;1.55;;;;;;;;;;10477893;28;20041;-84
2023/06/22 15:57:29;;;;;;;1.98;1.08;;;;;;;;;;10483586;28;20124;-84
2023/06/22 16:02:33;;;;;;;5.13;1.37;;;;;;;;;;10483312;28;20077;-84
2023/06/22 16:07:36;;;;;;;4.82;1.40;;;;;;;;;;10495101;28;20040;-84
2023/06/22 16:12:44;;;;;;;2.85;1.55;;;;;;;;;;10482875;28;20576;-85
2023/06/22 16:17:47;;;;;;;4.05;1.58;;;;;;;;;;10491727;28;20036;-84
2023/06/22 16:22:51;;;;;;;3.58;1.50;;;;;;;;;;10467950;28;20041;-84
2023/06/22 16:27:56;;;;;;;4.78;1.58;;;;;;;;;;10465874;28;20119;-84
2023/06/22 16:32:59;;;;;;;3.87;1.33;;;;;;;;;;10465301;28;20451;-86
2023/06/22 16:38:03;;;;;;;2.55;1.10;;;;;;;;;;10461330;28;20033;-84
2023/06/22 16:43:07;;;;;;;4.80;1.90;;;;;;;;;;10463831;28;20083;-84
2023/06/22 16:48:11;;;;;;;3.03;1.30;;;;;;;;;;10468466;28;20041;-85
2023/06/22 16:53:17;;;;;;;3.30;1.23;;;;;;;;;;10455869;28;20041;-84
2023/06/22 16:58:24;;;;;;;4.28;1.50;;;;;;;;;;10464661;28;20048;-87
2023/06/22 17:03:29;;;;;;;4.80;1.38;;;;;;;;;;10484858;28;20150;-86
2023/06/22 17:08:34;;;;;;;;;;;;;;;;;;10477116;28;20052;-85
2023/06/22 17:13:39;;;;;;;2.35;1.02;;;;;;;;;;10465496;28;20001;-88
2023/06/22 17:18:42;;;;;;;3.85;1.25;;;;;;;;;;10459639;28;20448;-86
2023/06/22 17:23:48;;;;;;;2.22;1.17;;;;;;;;;;10464611;28;20063;-84
2023/06/22 17:29:01;;;;;;;3.08;1.60;;;;;;;;;;10490540;28;20090;-85
2023/06/22 17:34:08;;;;;;;2.38;1.38;;;;;;;;;;10460241;28;20060;-85
2023/06/22 17:39:13;;;;;;;4.93;1.65;;;;;;;;;;10462715;28;20600;-85
2023/06/22 17:44:20;;;;;;;2.17;1.48;;;;;;;;;;10472114;28;20037;-86
2023/06/22 17:49:29;;;;;;;4.53;1.48;;;;;;;;;;10457229;28;20071;-86
2023/06/22 17:54:32;;;;;;;3.53;1.50;;;;;;;;;;10465364;28;20380;-87
2023/06/22 17:59:39;;;;;;;3.03;1.70;;;;;;;;;;10468682;28;20115;-86
2023/06/22 18:04:42;;;;;;;4.03;1.60;;;;;;;;;;10469453;28;20102;-86
2023/06/22 18:09:46;;;;;;;2.97;1.50;;;;;;;;;;10474364;28;20045;-85
2023/06/22 18:14:51;;;;;;;2.92;1.42;;;;;;;;;;10481968;28;20044;-85
2023/06/22 18:19:56;;;;;;;;;;;;;;;;;;10462651;28;20110;-85
2023/06/22 18:25:02;;;;;;;2.97;1.33;;;;;;;;;;10468908;28;19924;-85
2023/06/22 18:30:08;;;;;;;2.15;1.13;;;;;;;;;;10464398;28;20136;-86
2023/06/22 18:35:12;;;;;;;2.17;0.98;;;;;;;;;;10476438;28;20131;-85
2023/06/22 18:40:17;;;;;;;2.28;1.00;;;;;;;;;;10470247;28;20137;-85
2023/06/22 18:45:27;;;;;;;0.70;0.63;;;;;;;;;;10461797;28;20566;-89
2023/06/22 18:50:42;;;;;;;1.15;0.65;;;;;;;;;;10465323;28;20536;-84
2023/06/22 18:55:50;;;;;;;;;;;;;;;;;;10459234;28;20051;-85
2023/06/22 19:01:15;;;;;;;1.17;0.40;;;;;;;;;;10478841;28;19925;-86
2023/06/22 19:06:52;;;;;;;0.95;0.40;;;;;;;;;;10480879;28;20575;-89
2023/06/22 19:12:19;;;;;;;0.95;0.70;;;;;;;;;;10466005;28;20037;-87
2023/06/22 19:17:24;;;;;;;1.75;0.63;;;;;;;;;;10490297;28;20064;-87
2023/06/22 19:22:45;;;;;;;1.53;0.50;;;;;;;;;;10474880;28;20063;-86
2023/06/22 19:27:52;;;;;;;0.93;0.50;;;;;;;;;;10475421;28;20043;-86
2023/06/22 19:32:58;;;;;;;5.00;0.60;;;;;;;;;;10473987;28;20073;-85
2023/06/22 19:38:02;;;;;;;0.77;0.50;;;;;;;;;;10487774;28;20044;-87
2023/06/22 19:43:07;;;;;;;0.70;0.40;;;;;;;;;;10480298;28;20036;-86
2023/06/22 19:48:13;;;;;;;0.70;0.50;;;;;;;;;;10477528;28;20048;-90
2023/06/22 19:53:17;;;;;;;0.70;0.52;;;;;;;;;;10485630;28;20047;-86
2023/06/22 19:58:23;;;;;;;0.98;0.52;;;;;;;;;;10492330;28;20044;-85
2023/06/22 20:03:30;;;;;;;0.40;0.40;;;;;;;;;;10489467;28;20094;-85
2023/06/22 20:08:43;;;;;;;0.40;0.30;;;;;;;;;;10470674;28;20041;-88
2023/06/22 20:13:48;;;;;;;1.52;0.50;;;;;;;;;;10472839;28;20060;-87
2023/06/22 20:19:07;;;;;;;1.33;0.43;;;;;;;;;;10463551;28;20041;-87
2023/06/22 20:24:11;;;;;;;2.67;0.95;;;;;;;;;;10467372;28;20044;-85
2023/06/22 20:29:25;;;;;;;0.47;0.40;;;;;;;;;;10459085;28;20049;-86
2023/06/22 20:34:34;;;;;;;0.52;0.47;;;;;;;;;;10470138;28;20052;-86
2023/06/22 20:39:39;;;;;;;0.80;0.40;;;;;;;;;;10478512;28;20053;-85
